createdAt,value
2019-05-29T00:01:18.573Z,77.02
2019-05-29T00:03:46.331Z,77.10
2019-05-29T00:06:18.568Z,77.39
2019-05-29T00:08:50.371Z,77.45
2019-05-29T00:11:21.949Z,77.67
2019-05-29T00:13:55.160Z,77.44
2019-05-29T00:16:26.997Z,77.19
2019-05-29T00:18:58.591Z,76.73
2019-05-29T00:21:30.156Z,76.07
2019-05-29T00:24:01.732Z,76.34
2019-05-29T00:26:33.353Z,76.68
2019-05-29T00:29:05.645Z,76.74
2019-05-29T00:31:37.353Z,76.18
2019-05-29T00:34:09.022Z,76.10
2019-05-29T00:36:40.593Z,77.17
2019-05-29T00:39:12.733Z,76.80
2019-05-29T00:41:45.083Z,76.82
2019-05-29T00:44:17.419Z,77.40
2019-05-29T00:46:49.960Z,77.67
2019-05-29T00:49:21.523Z,77.68
2019-05-29T00:51:53.147Z,77.96
2019-05-29T00:54:24.727Z,78.30
2019-05-29T00:56:56.309Z,78.53
2019-05-29T00:59:27.862Z,78.99
2019-05-29T01:01:59.444Z,78.71
2019-05-29T01:04:31.015Z,78.43
2019-05-29T01:07:02.637Z,78.27
2019-05-29T01:09:34.421Z,77.88
2019-05-29T01:12:06.008Z,77.76
2019-05-29T01:14:49.585Z,77.91
2019-05-29T01:17:12.189Z,78.57
2019-05-29T01:19:43.905Z,78.25
2019-05-29T01:22:16.564Z,78.38
2019-05-29T01:24:48.136Z,78.64
2019-05-29T01:27:20.819Z,78.59
2019-05-29T01:29:52.485Z,78.29
2019-05-29T01:32:24.036Z,77.89
2019-05-29T01:34:55.718Z,78.60
2019-05-29T01:37:27.309Z,79.05
2019-05-29T01:39:58.907Z,78.32
2019-05-29T01:42:30.459Z,78.64
2019-05-29T01:45:07.890Z,78.40
2019-05-29T01:47:35.327Z,78.54
2019-05-29T01:50:07.331Z,78.58
2019-05-29T01:52:38.942Z,79.26
2019-05-29T01:55:10.685Z,79.67
2019-05-29T01:57:42.307Z,79.90
2019-05-29T02:00:15.729Z,79.20
2019-05-29T02:02:47.451Z,79.19
2019-05-29T02:05:19.986Z,79.63
2019-05-29T02:07:51.799Z,79.99
2019-05-29T02:10:24.352Z,79.57
2019-05-29T02:12:56.319Z,79.58
2019-05-29T02:15:33.523Z,79.82
2019-05-29T02:18:01.182Z,79.80
2019-05-29T02:20:32.750Z,79.66
2019-05-29T02:23:04.285Z,79.59
2019-05-29T02:25:35.868Z,79.92
2019-05-29T02:28:07.427Z,80.05
2019-05-29T02:30:39.007Z,79.87
2019-05-29T02:33:10.567Z,80.05
2019-05-29T02:35:42.173Z,80.03
2019-05-29T02:38:13.729Z,80.24
2019-05-29T02:40:45.292Z,80.36
2019-05-29T02:43:16.858Z,80.29
2019-05-29T02:45:54.423Z,80.14
2019-05-29T02:48:23.165Z,80.03
2019-05-29T02:50:54.987Z,79.87
2019-05-29T02:53:26.540Z,80.11
2019-05-29T02:55:58.111Z,79.97
2019-05-29T02:58:30.264Z,79.80
2019-05-29T03:01:02.986Z,79.64
2019-05-29T03:03:39.534Z,79.71
2019-05-29T03:06:08.056Z,79.74
2019-05-29T03:08:39.659Z,79.48
2019-05-29T03:11:11.314Z,79.47
2019-05-29T03:13:42.919Z,79.86
2019-05-29T03:16:14.487Z,79.84
2019-05-29T03:18:46.079Z,79.52
2019-05-29T03:21:17.662Z,79.93
2019-05-29T03:23:49.249Z,79.72
2019-05-29T03:26:24.735Z,80.05
2019-05-29T03:28:54.101Z,80.11
2019-05-29T03:31:29.911Z,80.24
2019-05-29T03:33:58.934Z,80.83
2019-05-29T03:36:35.793Z,80.44
2019-05-29T03:39:05.479Z,80.78
2019-05-29T03:41:38.753Z,81.15
2019-05-29T03:44:10.700Z,81.05
2019-05-29T03:46:45.592Z,81.08
2019-05-29T03:49:15.576Z,81.27
2019-05-29T03:51:58.629Z,81.27
2019-05-29T03:54:30.803Z,81.07
2019-05-29T03:57:03.481Z,81.13
2019-05-29T03:59:37.025Z,81.22
2019-05-29T04:02:08.539Z,80.95
2019-05-29T04:04:40.139Z,81.06
2019-05-29T04:07:11.722Z,80.94
2019-05-29T04:09:43.374Z,80.95
2019-05-29T04:12:18.826Z,81.12
2019-05-29T04:14:49.271Z,80.97
2019-05-29T04:17:23.366Z,80.52
2019-05-29T04:19:54.921Z,80.41
2019-05-29T04:22:34.384Z,81.24
2019-05-29T04:25:07.589Z,80.87
2019-05-29T04:27:42.222Z,80.83
2019-05-29T04:30:15.720Z,80.80
2019-05-29T04:32:47.300Z,80.11
2019-05-29T04:35:18.872Z,79.97
2019-05-29T04:37:50.468Z,79.55
2019-05-29T04:40:22.029Z,79.33
2019-05-29T04:42:53.619Z,79.13
2019-05-29T04:45:25.172Z,79.25
2019-05-29T04:47:56.740Z,79.10
2019-05-29T04:50:29.127Z,78.61
2019-05-29T04:53:00.963Z,77.61
2019-05-29T04:55:32.749Z,77.49
2019-05-29T04:58:04.331Z,78.25
2019-05-29T05:00:37.154Z,78.20
2019-05-29T05:03:08.925Z,77.61
2019-05-29T05:05:40.484Z,77.75
2019-05-29T05:08:12.119Z,77.26
2019-05-29T05:10:43.879Z,76.33
2019-05-29T05:13:15.464Z,75.99
2019-05-29T05:15:47.929Z,76.05
2019-05-29T05:18:19.510Z,76.14
2019-05-29T05:20:51.119Z,76.67
2019-05-29T05:23:22.751Z,76.82
2019-05-29T05:25:54.312Z,76.54
2019-05-29T05:28:25.938Z,76.14
2019-05-29T05:30:57.484Z,76.26
2019-05-29T05:33:30.375Z,75.79
2019-05-29T05:36:02.065Z,75.93
2019-05-29T05:38:34.655Z,75.70
2019-05-29T05:41:06.312Z,76.23
2019-05-29T05:43:38.910Z,76.17
2019-05-29T05:46:10.550Z,76.03
2019-05-29T05:48:42.130Z,75.94
2019-05-29T05:51:13.683Z,75.57
2019-05-29T05:53:45.283Z,75.16
2019-05-29T05:56:16.843Z,75.03
2019-05-29T05:58:48.441Z,75.17
2019-05-29T06:01:20.012Z,75.70
2019-05-29T06:03:51.912Z,76.26
2019-05-29T06:06:23.749Z,76.21
2019-05-29T06:08:55.324Z,75.92
2019-05-29T06:11:26.923Z,75.76
2019-05-29T06:13:58.494Z,76.07
2019-05-29T06:16:30.091Z,75.84
2019-05-29T06:19:01.648Z,76.38
2019-05-29T06:21:33.224Z,75.85
2019-05-29T06:24:05.227Z,75.92
2019-05-29T06:26:36.859Z,75.95
2019-05-29T06:29:08.509Z,75.34
2019-05-29T06:31:41.343Z,75.36
2019-05-29T06:34:14.012Z,75.49
2019-05-29T06:36:48.127Z,75.86
2019-05-29T06:39:18.888Z,74.58
2019-05-29T06:41:51.571Z,74.54
2019-05-29T06:44:23.136Z,73.92
2019-05-29T06:46:54.759Z,73.00
2019-05-29T06:49:26.322Z,73.62
2019-05-29T06:51:57.889Z,72.91
2019-05-29T06:54:29.467Z,72.91
2019-05-29T06:57:01.058Z,72.63
2019-05-29T06:59:32.631Z,72.37
2019-05-29T07:02:04.208Z,72.80
2019-05-29T07:04:36.244Z,73.28
2019-05-29T07:07:07.912Z,73.28
2019-05-29T07:09:39.518Z,72.44
2019-05-29T07:12:11.097Z,72.45
2019-05-29T07:14:42.668Z,71.86
2019-05-29T07:17:14.289Z,71.87
2019-05-29T07:19:57.791Z,69.46
2019-05-29T07:22:19.227Z,69.86
2019-05-29T07:24:50.887Z,69.04
2019-05-29T07:27:22.479Z,68.33
2019-05-29T07:29:54.048Z,68.26
2019-05-29T07:32:25.635Z,68.25
2019-05-29T07:35:03.588Z,67.76
2019-05-29T07:37:31.611Z,66.85
2019-05-29T07:40:03.175Z,65.72
2019-05-29T07:42:34.748Z,66.44
2019-05-29T07:45:06.783Z,66.07
2019-05-29T07:47:38.473Z,65.27
2019-05-29T07:50:10.398Z,65.29
2019-05-29T07:52:43.325Z,65.23
2019-05-29T07:55:15.641Z,64.69
2019-05-29T07:57:47.240Z,64.63
2019-05-29T08:00:18.803Z,66.10
2019-05-29T08:02:50.403Z,66.25
2019-05-29T08:05:22.007Z,65.57
2019-05-29T08:07:53.666Z,66.01
2019-05-29T08:10:25.552Z,66.63
2019-05-29T08:12:57.172Z,64.43
2019-05-29T08:15:28.811Z,65.83
2019-05-29T08:18:00.415Z,64.32
2019-05-29T08:20:31.993Z,61.86
2019-05-29T08:23:03.595Z,59.75
2019-05-29T08:25:35.212Z,61.27
2019-05-29T08:28:06.800Z,62.63
2019-05-29T08:30:38.400Z,58.51
2019-05-29T08:33:10.123Z,58.28
2019-05-29T08:35:42.974Z,58.95
2019-05-29T08:38:14.890Z,59.59
2019-05-29T08:40:47.428Z,60.73
2019-05-29T08:43:19.160Z,59.78
2019-05-29T08:45:52.682Z,59.01
2019-05-29T08:48:24.042Z,61.15
2019-05-29T08:50:55.628Z,59.69
2019-05-29T08:53:27.270Z,61.00
2019-05-29T08:55:58.799Z,60.40
2019-05-29T08:58:30.357Z,62.13
2019-05-29T09:01:01.982Z,62.21
2019-05-29T09:03:33.551Z,63.08
2019-05-29T09:06:09.104Z,63.13
2019-05-29T09:08:38.459Z,63.66
2019-05-29T09:11:10.056Z,63.76
2019-05-29T09:13:41.653Z,63.83
2019-05-29T09:16:13.257Z,63.61
2019-05-29T09:18:44.860Z,63.65
2019-05-29T09:21:18.009Z,64.28
2019-05-29T09:23:50.248Z,62.99
2019-05-29T09:26:24.642Z,63.48
2019-05-29T09:28:55.146Z,63.35
2019-05-29T09:31:26.724Z,62.67
2019-05-29T09:33:58.333Z,62.94
2019-05-29T09:36:30.044Z,62.38
2019-05-29T09:39:01.653Z,63.35
2019-05-29T09:41:34.588Z,61.99
2019-05-29T09:44:06.364Z,62.24
2019-05-29T09:46:37.998Z,63.17
2019-05-29T09:49:09.589Z,59.88
2019-05-29T09:51:41.189Z,62.09
2019-05-29T09:54:12.802Z,60.58
2019-05-29T09:56:44.445Z,62.11
2019-05-29T09:59:16.987Z,60.75
2019-05-29T10:01:48.628Z,59.63
2019-05-29T10:04:20.200Z,61.00
2019-05-29T10:06:53.179Z,63.07
2019-05-29T10:09:25.173Z,61.10
2019-05-29T10:12:00.892Z,62.43
2019-05-29T10:14:30.077Z,62.21
2019-05-29T10:17:07.719Z,62.56
2019-05-29T10:19:34.971Z,60.08
2019-05-29T10:22:06.563Z,62.36
2019-05-29T10:24:38.192Z,61.09
2019-05-29T10:27:09.745Z,60.96
2019-05-29T10:29:42.422Z,61.27
2019-05-29T10:32:14.071Z,60.26
2019-05-29T10:34:46.311Z,59.93
2019-05-29T10:37:18.378Z,58.73
2019-05-29T10:39:51.332Z,60.55
2019-05-29T10:42:22.934Z,60.04
2019-05-29T10:44:54.638Z,59.97
2019-05-29T10:47:26.226Z,58.50
2019-05-29T10:49:57.827Z,58.37
2019-05-29T10:52:29.413Z,60.19
2019-05-29T10:55:01.017Z,60.02
2019-05-29T10:57:32.656Z,57.75
2019-05-29T11:00:04.661Z,59.53
2019-05-29T11:02:36.524Z,59.34
2019-05-29T11:05:08.365Z,60.37
2019-05-29T11:07:41.037Z,57.49
2019-05-29T11:10:14.702Z,57.90
2019-05-29T11:12:46.474Z,55.74
2019-05-29T11:15:21.794Z,56.99
2019-05-29T11:17:53.253Z,55.41
2019-05-29T11:20:25.912Z,54.30
2019-05-29T11:22:57.823Z,52.20
2019-05-29T11:25:29.766Z,53.38
2019-05-29T11:28:01.365Z,52.47
2019-05-29T11:30:34.035Z,51.07
2019-05-29T11:33:05.646Z,51.44
2019-05-29T11:35:37.271Z,51.54
2019-05-29T11:38:08.862Z,52.75
2019-05-29T11:40:40.652Z,52.56
2019-05-29T11:43:12.280Z,51.07
2019-05-29T11:45:43.859Z,51.74
2019-05-29T11:48:15.585Z,53.37
2019-05-29T11:50:47.270Z,53.01
2019-05-29T11:53:18.873Z,53.64
2019-05-29T11:55:52.497Z,53.10
2019-05-29T11:58:30.946Z,53.16
2019-05-29T12:00:57.241Z,53.03
2019-05-29T12:03:28.908Z,56.01
2019-05-29T12:06:02.993Z,54.92
2019-05-29T12:08:33.817Z,55.11
2019-05-29T12:11:07.147Z,52.38
2019-05-29T12:13:39.479Z,52.85
2019-05-29T12:16:11.174Z,52.37
2019-05-29T12:18:42.771Z,53.00
2019-05-29T12:21:14.332Z,54.79
2019-05-29T12:23:45.929Z,52.26
2019-05-29T12:26:22.795Z,54.82
2019-05-29T12:28:50.813Z,57.05
2019-05-29T12:31:22.409Z,57.55
2019-05-29T12:33:55.004Z,58.10
2019-05-29T12:36:26.816Z,59.63
2019-05-29T12:38:59.643Z,60.96
2019-05-29T12:41:31.270Z,63.14
2019-05-29T12:44:03.635Z,62.68
2019-05-29T12:46:35.322Z,64.25
2019-05-29T12:49:07.044Z,65.58
2019-05-29T12:51:38.633Z,66.37
2019-05-29T12:54:10.212Z,67.28
2019-05-29T12:56:41.779Z,68.61
2019-05-29T12:59:14.462Z,68.41
2019-05-29T13:01:46.185Z,68.70
2019-05-29T13:04:17.762Z,67.82
2019-05-29T13:06:49.352Z,70.40
2019-05-29T13:09:20.964Z,69.97
2019-05-29T13:11:52.714Z,66.93
2019-05-29T13:14:24.264Z,66.18
2019-05-29T13:16:56.662Z,67.05
2019-05-29T13:19:28.420Z,67.69
2019-05-29T13:22:01.408Z,65.01
2019-05-29T13:24:34.267Z,65.65
2019-05-29T13:27:06.333Z,65.30
2019-05-29T13:29:37.966Z,64.15
2019-05-29T13:32:09.773Z,62.48
2019-05-29T13:34:41.350Z,61.43
2019-05-29T13:37:13.025Z,62.61
2019-05-29T13:39:44.651Z,62.17
2019-05-29T13:42:16.316Z,63.41
2019-05-29T13:44:47.907Z,60.84
2019-05-29T13:47:19.555Z,60.79
2019-05-29T13:49:51.169Z,59.94
2019-05-29T13:52:22.770Z,61.50
2019-05-29T13:54:54.365Z,58.96
2019-05-29T13:57:25.962Z,59.96
2019-05-29T13:59:57.879Z,59.77
2019-05-29T14:02:29.509Z,60.95
2019-05-29T14:05:02.829Z,62.08
2019-05-29T14:07:34.601Z,59.18
2019-05-29T14:10:07.812Z,61.08
2019-05-29T14:12:39.801Z,63.22
2019-05-29T14:15:12.487Z,64.21
2019-05-29T14:17:44.220Z,65.03
2019-05-29T14:20:17.595Z,65.67
2019-05-29T14:22:49.384Z,65.11
2019-05-29T14:25:20.964Z,65.19
2019-05-29T14:27:52.555Z,65.08
2019-05-29T14:30:24.537Z,66.23
2019-05-29T14:32:56.154Z,66.81
2019-05-29T14:35:27.722Z,65.90
2019-05-29T14:37:59.312Z,66.77
2019-05-29T14:40:30.899Z,65.36
2019-05-29T14:43:05.500Z,65.35
2019-05-29T14:45:35.809Z,65.35
2019-05-29T14:48:08.167Z,65.10
2019-05-29T14:50:39.849Z,66.74
2019-05-29T14:53:13.352Z,65.98
2019-05-29T14:55:44.868Z,65.79
2019-05-29T14:58:16.447Z,67.00
2019-05-29T15:00:48.046Z,65.24
2019-05-29T15:03:19.619Z,66.21
2019-05-29T15:05:51.233Z,68.58
2019-05-29T15:08:23.026Z,68.78
2019-05-29T15:10:54.655Z,69.57
2019-05-29T15:13:26.222Z,70.32
2019-05-29T15:15:57.798Z,71.72
2019-05-29T15:18:29.410Z,72.31
2019-05-29T15:21:00.958Z,72.46
2019-05-29T15:23:32.670Z,74.01
2019-05-29T15:26:05.431Z,74.41
2019-05-29T15:28:37.174Z,73.93
2019-05-29T15:31:08.759Z,74.43
2019-05-29T15:33:40.376Z,74.68
2019-05-29T15:36:13.227Z,74.77
2019-05-29T15:38:44.977Z,74.57
2019-05-29T15:41:16.953Z,75.08
2019-05-29T15:43:49.364Z,75.84
2019-05-29T15:46:21.061Z,75.92
2019-05-29T15:48:52.698Z,76.71
2019-05-29T15:51:24.261Z,76.92
2019-05-29T15:53:55.884Z,77.20
2019-05-29T15:56:28.402Z,77.03
2019-05-29T15:59:00.173Z,77.54
2019-05-29T16:01:31.818Z,77.62
2019-05-29T16:04:03.413Z,77.94
2019-05-29T16:06:35.030Z,76.90
2019-05-29T16:09:10.228Z,75.93
2019-05-29T16:11:41.853Z,74.84
2019-05-29T16:14:14.839Z,74.90
2019-05-29T16:16:47.600Z,74.95
2019-05-29T16:19:19.197Z,75.13
2019-05-29T16:21:50.814Z,75.14
2019-05-29T16:24:23.003Z,74.52
2019-05-29T16:27:07.966Z,74.30
2019-05-29T16:29:29.511Z,74.79
2019-05-29T16:32:01.124Z,75.15
2019-05-29T16:34:32.738Z,74.91
2019-05-29T16:37:04.364Z,75.74
2019-05-29T16:39:35.991Z,75.43
2019-05-29T16:42:07.640Z,75.58
2019-05-29T16:44:40.246Z,76.79
2019-05-29T16:47:12.498Z,76.63
2019-05-29T16:49:44.255Z,76.57
2019-05-29T16:52:16.911Z,77.09
2019-05-29T16:54:48.532Z,76.09
2019-05-29T16:57:21.230Z,76.27
2019-05-29T16:59:52.910Z,75.99
2019-05-29T17:02:24.469Z,75.40
2019-05-29T17:04:58.264Z,75.01
2019-05-29T17:07:29.422Z,75.38
2019-05-29T17:10:01.035Z,76.35
2019-05-29T17:12:32.686Z,76.12
2019-05-29T17:15:04.630Z,75.87
2019-05-29T17:17:36.441Z,76.19
2019-05-29T17:20:08.681Z,77.30
2019-05-29T17:22:40.296Z,77.40
2019-05-29T17:25:12.258Z,77.14
2019-05-29T17:27:43.883Z,76.71
2019-05-29T17:30:18.832Z,77.07
2019-05-29T17:32:50.624Z,76.07
2019-05-29T17:35:23.151Z,76.33
2019-05-29T17:37:54.894Z,75.33
2019-05-29T17:40:26.606Z,75.12
2019-05-29T17:42:58.144Z,75.36
2019-05-29T17:45:29.777Z,75.56
2019-05-29T17:48:01.446Z,74.76
2019-05-29T17:50:33.137Z,74.98
2019-05-29T17:53:04.907Z,75.16
2019-05-29T17:55:36.519Z,75.25
2019-05-29T17:58:08.133Z,75.37
2019-05-29T18:00:39.724Z,76.18
2019-05-29T18:03:11.408Z,76.16
2019-05-29T18:05:43.028Z,76.42
2019-05-29T18:08:14.749Z,76.23
2019-05-29T18:10:46.438Z,76.24
2019-05-29T18:13:19.065Z,76.58
2019-05-29T18:15:51.888Z,76.66
2019-05-29T18:18:23.603Z,76.71
2019-05-29T18:20:55.164Z,76.75
2019-05-29T18:23:28.211Z,76.77
2019-05-29T18:25:59.911Z,77.13
2019-05-29T18:28:31.514Z,77.03
2019-05-29T18:31:03.092Z,76.50
2019-05-29T18:33:34.681Z,76.63
2019-05-29T18:36:06.255Z,77.88
2019-05-29T18:38:37.896Z,78.41
2019-05-29T18:41:09.508Z,78.88
2019-05-29T18:43:41.144Z,79.04
2019-05-29T18:46:12.717Z,79.13
2019-05-29T18:48:44.346Z,79.15
2019-05-29T18:51:15.934Z,78.03
2019-05-29T18:53:48.626Z,77.94
2019-05-29T18:56:20.256Z,78.04
2019-05-29T18:58:51.856Z,78.28
2019-05-29T19:01:23.590Z,78.40
2019-05-29T19:03:55.159Z,79.00
2019-05-29T19:06:27.659Z,78.79
2019-05-29T19:08:59.456Z,78.83
2019-05-29T19:11:32.010Z,79.75
2019-05-29T19:14:03.737Z,80.65
2019-05-29T19:16:37.452Z,80.81
2019-05-29T19:19:08.724Z,81.04
2019-05-29T19:21:40.356Z,81.00
2019-05-29T19:24:11.957Z,80.91
2019-05-29T19:26:43.568Z,80.83
2019-05-29T19:29:15.151Z,80.66
2019-05-29T19:31:46.748Z,80.64
2019-05-29T19:34:18.362Z,80.65
2019-05-29T19:36:49.992Z,80.44
2019-05-29T19:39:21.584Z,80.27
2019-05-29T19:41:53.237Z,80.46
2019-05-29T19:44:26.173Z,80.41
2019-05-29T19:46:57.872Z,80.24
2019-05-29T19:49:29.481Z,80.23
2019-05-29T19:52:01.123Z,79.95
2019-05-29T19:54:33.665Z,79.50
2019-05-29T19:57:05.379Z,79.75
2019-05-29T19:59:36.983Z,79.40
2019-05-29T20:02:10.276Z,79.73
2019-05-29T20:04:41.953Z,79.37
2019-05-29T20:07:13.658Z,79.73
2019-05-29T20:09:45.279Z,79.79
2019-05-29T20:12:16.916Z,79.99
2019-05-29T20:14:48.533Z,80.32
2019-05-29T20:17:20.192Z,80.09
2019-05-29T20:19:51.816Z,80.11
2019-05-29T20:22:23.444Z,81.09
2019-05-29T20:24:55.037Z,81.10
2019-05-29T20:27:26.635Z,80.93
2019-05-29T20:29:58.287Z,80.95
2019-05-29T20:32:30.523Z,81.10
2019-05-29T20:35:02.273Z,80.88
2019-05-29T20:37:34.110Z,80.86
2019-05-29T20:40:06.197Z,80.86
2019-05-29T20:42:38.505Z,80.66
2019-05-29T20:45:10.551Z,80.68
2019-05-29T20:47:42.245Z,80.68
2019-05-29T20:50:14.593Z,80.72
2019-05-29T20:52:46.167Z,80.69
2019-05-29T20:55:19.052Z,80.68
2019-05-29T20:57:50.782Z,80.42
2019-05-29T21:00:22.741Z,80.41
2019-05-29T21:02:54.353Z,80.68
2019-05-29T21:05:25.958Z,80.37
2019-05-29T21:07:57.560Z,80.09
2019-05-29T21:10:29.182Z,80.47
2019-05-29T21:13:00.755Z,80.52
2019-05-29T21:15:33.504Z,80.02
2019-05-29T21:18:05.295Z,80.33
2019-05-29T21:20:38.247Z,80.63
2019-05-29T21:23:10.130Z,80.71
2019-05-29T21:25:42.829Z,80.66
2019-05-29T21:28:14.586Z,80.39
2019-05-29T21:30:46.247Z,80.44
2019-05-29T21:33:17.819Z,80.74
2019-05-29T21:35:49.430Z,81.04
2019-05-29T21:38:21.063Z,81.14
2019-05-29T21:40:52.680Z,80.90
2019-05-29T21:43:24.291Z,81.25
2019-05-29T21:45:56.408Z,81.79
2019-05-29T21:48:28.035Z,81.74
2019-05-29T21:51:00.681Z,81.33
2019-05-29T21:53:32.347Z,79.33
2019-05-29T21:56:03.940Z,79.21
2019-05-29T21:58:35.562Z,80.27
2019-05-29T22:01:07.342Z,80.37
2019-05-29T22:03:40.226Z,80.32
2019-05-29T22:06:11.916Z,81.24
2019-05-29T22:08:43.479Z,81.02
2019-05-29T22:11:15.095Z,81.15
2019-05-29T22:13:46.660Z,81.56
2019-05-29T22:16:18.261Z,81.77
2019-05-29T22:18:50.789Z,81.49
2019-05-29T22:21:22.448Z,81.50
2019-05-29T22:23:55.120Z,81.38
2019-05-29T22:26:26.900Z,81.30
2019-05-29T22:29:15.272Z,80.79
2019-05-29T22:31:31.831Z,80.90
2019-05-29T22:34:03.554Z,80.83
2019-05-29T22:36:35.112Z,80.67
2019-05-29T22:39:07.938Z,80.75
2019-05-29T22:41:39.534Z,80.99
2019-05-29T22:44:11.166Z,81.28
2019-05-29T22:46:42.911Z,81.32
2019-05-29T22:49:14.495Z,81.26
2019-05-29T22:51:46.178Z,80.47
2019-05-29T22:54:17.788Z,81.29
2019-05-29T22:56:49.371Z,82.17
2019-05-29T22:59:31.512Z,82.07
2019-05-29T23:01:54.287Z,81.73
2019-05-29T23:04:25.870Z,81.69
2019-05-29T23:06:58.340Z,82.10
2019-05-29T23:09:30.045Z,82.90
2019-05-29T23:12:02.527Z,83.03
2019-05-29T23:14:34.110Z,83.04
2019-05-29T23:17:05.713Z,82.73
2019-05-29T23:19:37.303Z,82.68
2019-05-29T23:22:08.895Z,82.58
2019-05-29T23:24:40.489Z,83.27
2019-05-29T23:27:12.089Z,83.17
2019-05-29T23:29:49.016Z,83.21
2019-05-29T23:32:16.981Z,83.57
2019-05-29T23:34:48.612Z,83.85
2019-05-29T23:37:20.229Z,83.73
2019-05-29T23:39:53.007Z,83.14
2019-05-29T23:42:24.722Z,81.92
2019-05-29T23:44:57.537Z,80.73
2019-05-29T23:47:29.257Z,81.02
2019-05-29T23:50:02.759Z,81.93
2019-05-29T23:52:34.109Z,82.17
2019-05-29T23:55:05.858Z,82.44
2019-05-29T23:57:37.633Z,82.67
